sensor_id;sensor_type;location;lat;lon;timestamp;P1;durP1;ratioP1;P2;durP2;ratioP2
7887;SDS011;3989;48.810;9.208;2022-11-20T00:02:16;13.80;;;10.23;;
7887;SDS011;3989;48.810;9.208;2022-11-20T00:04:43;13.07;;;9.80;;
7887;SDS011;3989;48.810;9.208;2022-11-20T00:07:10;11.60;;;9.10;;
7887;SDS011;3989;48.810;9.208;2022-11-20T00:09:36;12.17;;;9.00;;
7887;SDS011;3989;48.810;9.208;2022-11-20T00:12:03;14.23;;;10.67;;
7887;SDS011;3989;48.810;9.208;2022-11-20T00:14:30;12.97;;;10.03;;
7887;SDS011;3989;48.810;9.208;2022-11-20T00:16:58;15.20;;;10.17;;
7887;SDS011;3989;48.810;9.208;2022-11-20T00:19:25;16.27;;;10.40;;
7887;SDS011;3989;48.810;9.208;2022-11-20T00:21:52;13.27;;;9.40;;
7887;SDS011;3989;48.810;9.208;2022-11-20T00:24:20;14.03;;;9.33;;
7887;SDS011;3989;48.810;9.208;2022-11-20T00:26:47;15.53;;;10.73;;
7887;SDS011;3989;48.810;9.208;2022-11-20T00:29:13;14.97;;;9.43;;
7887;SDS011;3989;48.810;9.208;2022-11-20T00:31:40;17.27;;;10.57;;
7887;SDS011;3989;48.810;9.208;2022-11-20T00:34:08;12.23;;;9.67;;
7887;SDS011;3989;48.810;9.208;2022-11-20T00:36:35;12.73;;;9.60;;
7887;SDS011;3989;48.810;9.208;2022-11-20T00:39:02;13.63;;;10.13;;
7887;SDS011;3989;48.810;9.208;2022-11-20T00:41:28;14.57;;;10.90;;
7887;SDS011;3989;48.810;9.208;2022-11-20T00:43:55;13.63;;;9.10;;
7887;SDS011;3989;48.810;9.208;2022-11-20T00:46:23;14.70;;;9.27;;
7887;SDS011;3989;48.810;9.208;2022-11-20T00:48:50;13.27;;;10.20;;
7887;SDS011;3989;48.810;9.208;2022-11-20T00:51:19;16.60;;;11.50;;
7887;SDS011;3989;48.810;9.208;2022-11-20T00:53:47;17.10;;;10.70;;
7887;SDS011;3989;48.810;9.208;2022-11-20T00:56:14;12.80;;;9.63;;
7887;SDS011;3989;48.810;9.208;2022-11-20T00:58:43;19.43;;;11.00;;
7887;SDS011;3989;48.810;9.208;2022-11-20T01:01:11;13.80;;;10.53;;
7887;SDS011;3989;48.810;9.208;2022-11-20T01:03:40;13.70;;;9.80;;
7887;SDS011;3989;48.810;9.208;2022-11-20T01:06:09;14.90;;;9.77;;
7887;SDS011;3989;48.810;9.208;2022-11-20T01:08:39;12.97;;;9.80;;
7887;SDS011;3989;48.810;9.208;2022-11-20T01:11:07;13.27;;;8.97;;
7887;SDS011;3989;48.810;9.208;2022-11-20T01:13:36;13.20;;;9.00;;
7887;SDS011;3989;48.810;9.208;2022-11-20T01:16:03;14.63;;;9.97;;
7887;SDS011;3989;48.810;9.208;2022-11-20T01:18:30;14.30;;;10.13;;
7887;SDS011;3989;48.810;9.208;2022-11-20T01:20:59;11.80;;;9.20;;
7887;SDS011;3989;48.810;9.208;2022-11-20T01:23:29;12.90;;;9.70;;
7887;SDS011;3989;48.810;9.208;2022-11-20T01:25:58;13.33;;;9.57;;
7887;SDS011;3989;48.810;9.208;2022-11-20T01:28:25;13.57;;;8.77;;
7887;SDS011;3989;48.810;9.208;2022-11-20T01:30:52;16.77;;;10.90;;
7887;SDS011;3989;48.810;9.208;2022-11-20T01:33:19;12.57;;;9.63;;
7887;SDS011;3989;48.810;9.208;2022-11-20T01:35:45;16.67;;;10.50;;
7887;SDS011;3989;48.810;9.208;2022-11-20T01:38:12;15.20;;;9.90;;
7887;SDS011;3989;48.810;9.208;2022-11-20T01:40:39;20.57;;;11.23;;
7887;SDS011;3989;48.810;9.208;2022-11-20T01:43:09;17.37;;;10.97;;
7887;SDS011;3989;48.810;9.208;2022-11-20T01:46:02;18.63;;;11.70;;
7887;SDS011;3989;48.810;9.208;2022-11-20T01:48:32;18.47;;;11.00;;
7887;SDS011;3989;48.810;9.208;2022-11-20T01:51:02;19.47;;;11.77;;
7887;SDS011;3989;48.810;9.208;2022-11-20T01:53:33;19.27;;;12.13;;
7887;SDS011;3989;48.810;9.208;2022-11-20T01:56:02;18.83;;;11.90;;
7887;SDS011;3989;48.810;9.208;2022-11-20T01:58:35;17.60;;;11.00;;
7887;SDS011;3989;48.810;9.208;2022-11-20T02:01:10;16.30;;;10.70;;
7887;SDS011;3989;48.810;9.208;2022-11-20T02:03:36;17.87;;;10.70;;
7887;SDS011;3989;48.810;9.208;2022-11-20T02:06:04;16.60;;;10.27;;
7887;SDS011;3989;48.810;9.208;2022-11-20T02:08:36;12.93;;;9.70;;
7887;SDS011;3989;48.810;9.208;2022-11-20T02:11:04;12.30;;;9.20;;
7887;SDS011;3989;48.810;9.208;2022-11-20T02:13:31;12.33;;;9.87;;
7887;SDS011;3989;48.810;9.208;2022-11-20T02:16:13;12.47;;;8.93;;
7887;SDS011;3989;48.810;9.208;2022-11-20T02:18:42;12.13;;;9.23;;
7887;SDS011;3989;48.810;9.208;2022-11-20T02:21:13;12.30;;;9.20;;
7887;SDS011;3989;48.810;9.208;2022-11-20T02:23:55;11.90;;;7.97;;
7887;SDS011;3989;48.810;9.208;2022-11-20T02:26:26;10.50;;;8.30;;
7887;SDS011;3989;48.810;9.208;2022-11-20T02:28:55;10.53;;;8.13;;
7887;SDS011;3989;48.810;9.208;2022-11-20T02:31:22;8.07;;;6.93;;
7887;SDS011;3989;48.810;9.208;2022-11-20T02:33:53;9.20;;;6.20;;
7887;SDS011;3989;48.810;9.208;2022-11-20T02:36:20;10.77;;;7.20;;
7887;SDS011;3989;48.810;9.208;2022-11-20T02:38:48;8.43;;;6.73;;
7887;SDS011;3989;48.810;9.208;2022-11-20T02:41:16;10.63;;;6.50;;
7887;SDS011;3989;48.810;9.208;2022-11-20T02:43:43;5.97;;;4.70;;
7887;SDS011;3989;48.810;9.208;2022-11-20T02:46:10;6.07;;;4.93;;
7887;SDS011;3989;48.810;9.208;2022-11-20T02:48:36;5.30;;;4.80;;
7887;SDS011;3989;48.810;9.208;2022-11-20T02:51:03;5.03;;;4.50;;
7887;SDS011;3989;48.810;9.208;2022-11-20T02:53:30;6.80;;;4.57;;
7887;SDS011;3989;48.810;9.208;2022-11-20T02:55:57;4.83;;;4.17;;
7887;SDS011;3989;48.810;9.208;2022-11-20T02:58:25;4.50;;;4.10;;
7887;SDS011;3989;48.810;9.208;2022-11-20T03:00:51;4.77;;;4.37;;
7887;SDS011;3989;48.810;9.208;2022-11-20T03:03:18;4.17;;;3.87;;
7887;SDS011;3989;48.810;9.208;2022-11-20T03:05:45;3.97;;;3.60;;
7887;SDS011;3989;48.810;9.208;2022-11-20T03:08:11;4.83;;;4.43;;
7887;SDS011;3989;48.810;9.208;2022-11-20T03:10:38;4.60;;;4.20;;
7887;SDS011;3989;48.810;9.208;2022-11-20T03:13:05;4.00;;;3.60;;
7887;SDS011;3989;48.810;9.208;2022-11-20T03:15:33;3.23;;;3.03;;
7887;SDS011;3989;48.810;9.208;2022-11-20T03:17:59;3.20;;;2.90;;
7887;SDS011;3989;48.810;9.208;2022-11-20T03:20:26;4.73;;;2.90;;
7887;SDS011;3989;48.810;9.208;2022-11-20T03:22:53;2.90;;;2.70;;
7887;SDS011;3989;48.810;9.208;2022-11-20T03:25:19;3.73;;;2.70;;
7887;SDS011;3989;48.810;9.208;2022-11-20T03:27:46;6.23;;;2.77;;
7887;SDS011;3989;48.810;9.208;2022-11-20T03:30:13;3.07;;;2.80;;
7887;SDS011;3989;48.810;9.208;2022-11-20T03:32:41;2.67;;;2.47;;
7887;SDS011;3989;48.810;9.208;2022-11-20T03:35:08;3.13;;;2.83;;
7887;SDS011;3989;48.810;9.208;2022-11-20T03:37:35;3.13;;;2.83;;
7887;SDS011;3989;48.810;9.208;2022-11-20T03:40:01;3.27;;;3.03;;
7887;SDS011;3989;48.810;9.208;2022-11-20T03:42:28;2.70;;;2.60;;
7887;SDS011;3989;48.810;9.208;2022-11-20T03:45:13;3.40;;;3.20;;
7887;SDS011;3989;48.810;9.208;2022-11-20T03:47:42;2.33;;;2.23;;
7887;SDS011;3989;48.810;9.208;2022-11-20T03:50:09;2.90;;;2.60;;
7887;SDS011;3989;48.810;9.208;2022-11-20T03:52:38;5.70;;;3.27;;
7887;SDS011;3989;48.810;9.208;2022-11-20T03:55:04;4.43;;;2.63;;
7887;SDS011;3989;48.810;9.208;2022-11-20T03:57:31;3.10;;;2.90;;
7887;SDS011;3989;48.810;9.208;2022-11-20T03:59:58;3.17;;;2.87;;
7887;SDS011;3989;48.810;9.208;2022-11-20T04:02:25;2.70;;;2.50;;
7887;SDS011;3989;48.810;9.208;2022-11-20T04:04:53;3.10;;;2.90;;
7887;SDS011;3989;48.810;9.208;2022-11-20T04:07:19;3.20;;;2.90;;
7887;SDS011;3989;48.810;9.208;2022-11-20T04:09:46;4.10;;;3.30;;
7887;SDS011;3989;48.810;9.208;2022-11-20T04:12:13;5.67;;;2.80;;
7887;SDS011;3989;48.810;9.208;2022-11-20T04:14:39;2.90;;;2.70;;
7887;SDS011;3989;48.810;9.208;2022-11-20T04:17:06;3.00;;;2.77;;
7887;SDS011;3989;48.810;9.208;2022-11-20T04:19:33;3.43;;;3.00;;
7887;SDS011;3989;48.810;9.208;2022-11-20T04:22:01;3.53;;;2.80;;
7887;SDS011;3989;48.810;9.208;2022-11-20T04:24:27;3.20;;;2.90;;
7887;SDS011;3989;48.810;9.208;2022-11-20T04:26:54;3.20;;;3.00;;
7887;SDS011;3989;48.810;9.208;2022-11-20T04:29:21;4.10;;;3.57;;
7887;SDS011;3989;48.810;9.208;2022-11-20T04:31:47;2.93;;;2.70;;
7887;SDS011;3989;48.810;9.208;2022-11-20T04:34:14;3.20;;;3.00;;
7887;SDS011;3989;48.810;9.208;2022-11-20T04:36:40;4.80;;;3.07;;
7887;SDS011;3989;48.810;9.208;2022-11-20T04:39:12;4.00;;;2.90;;
7887;SDS011;3989;48.810;9.208;2022-11-20T04:41:40;3.20;;;2.63;;
7887;SDS011;3989;48.810;9.208;2022-11-20T04:44:07;2.97;;;2.77;;
7887;SDS011;3989;48.810;9.208;2022-11-20T04:46:34;3.47;;;2.90;;
7887;SDS011;3989;48.810;9.208;2022-11-20T04:49:03;2.80;;;2.60;;
7887;SDS011;3989;48.810;9.208;2022-11-20T04:51:30;2.90;;;2.70;;
7887;SDS011;3989;48.810;9.208;2022-11-20T04:53:57;3.17;;;2.90;;
7887;SDS011;3989;48.810;9.208;2022-11-20T04:56:25;3.13;;;2.93;;
7887;SDS011;3989;48.810;9.208;2022-11-20T04:58:52;2.83;;;2.63;;
7887;SDS011;3989;48.810;9.208;2022-11-20T05:01:19;3.13;;;2.83;;
7887;SDS011;3989;48.810;9.208;2022-11-20T05:03:48;3.20;;;3.00;;
7887;SDS011;3989;48.810;9.208;2022-11-20T05:06:16;2.70;;;2.50;;
7887;SDS011;3989;48.810;9.208;2022-11-20T05:08:44;3.60;;;2.73;;
7887;SDS011;3989;48.810;9.208;2022-11-20T05:11:11;2.93;;;2.77;;
7887;SDS011;3989;48.810;9.208;2022-11-20T05:13:43;4.30;;;2.30;;
7887;SDS011;3989;48.810;9.208;2022-11-20T05:16:11;2.77;;;2.60;;
7887;SDS011;3989;48.810;9.208;2022-11-20T05:18:41;2.73;;;2.53;;
7887;SDS011;3989;48.810;9.208;2022-11-20T05:21:08;2.93;;;2.73;;
7887;SDS011;3989;48.810;9.208;2022-11-20T05:23:36;3.27;;;3.07;;
7887;SDS011;3989;48.810;9.208;2022-11-20T05:26:04;3.07;;;2.50;;
7887;SDS011;3989;48.810;9.208;2022-11-20T05:28:38;2.93;;;2.63;;
7887;SDS011;3989;48.810;9.208;2022-11-20T05:31:08;3.30;;;3.07;;
7887;SDS011;3989;48.810;9.208;2022-11-20T05:33:36;2.93;;;2.73;;
7887;SDS011;3989;48.810;9.208;2022-11-20T05:36:03;2.60;;;2.40;;
7887;SDS011;3989;48.810;9.208;2022-11-20T05:38:30;2.50;;;2.30;;
7887;SDS011;3989;48.810;9.208;2022-11-20T05:41:02;3.17;;;2.93;;
7887;SDS011;3989;48.810;9.208;2022-11-20T05:43:31;2.77;;;2.57;;
7887;SDS011;3989;48.810;9.208;2022-11-20T05:45:58;3.07;;;2.87;;
7887;SDS011;3989;48.810;9.208;2022-11-20T05:48:26;2.67;;;2.50;;
7887;SDS011;3989;48.810;9.208;2022-11-20T05:50:53;2.80;;;2.60;;
7887;SDS011;3989;48.810;9.208;2022-11-20T05:53:19;2.90;;;2.70;;
7887;SDS011;3989;48.810;9.208;2022-11-20T05:55:46;4.27;;;3.00;;
7887;SDS011;3989;48.810;9.208;2022-11-20T05:58:13;2.83;;;2.63;;
7887;SDS011;3989;48.810;9.208;2022-11-20T06:00:39;3.27;;;2.40;;
7887;SDS011;3989;48.810;9.208;2022-11-20T06:03:06;2.33;;;2.23;;
7887;SDS011;3989;48.810;9.208;2022-11-20T06:05:34;2.70;;;2.60;;
7887;SDS011;3989;48.810;9.208;2022-11-20T06:08:01;2.53;;;1.90;;
7887;SDS011;3989;48.810;9.208;2022-11-20T06:10:27;3.10;;;2.90;;
7887;SDS011;3989;48.810;9.208;2022-11-20T06:12:56;2.53;;;2.43;;
7887;SDS011;3989;48.810;9.208;2022-11-20T06:15:23;2.30;;;2.20;;
7887;SDS011;3989;48.810;9.208;2022-11-20T06:17:51;2.47;;;2.33;;
7887;SDS011;3989;48.810;9.208;2022-11-20T06:20:18;2.50;;;2.30;;
7887;SDS011;3989;48.810;9.208;2022-11-20T06:22:46;2.57;;;2.47;;
7887;SDS011;3989;48.810;9.208;2022-11-20T06:25:13;2.83;;;2.40;;
7887;SDS011;3989;48.810;9.208;2022-11-20T06:27:40;2.80;;;2.60;;
7887;SDS011;3989;48.810;9.208;2022-11-20T06:30:07;2.53;;;2.33;;
7887;SDS011;3989;48.810;9.208;2022-11-20T06:32:34;2.27;;;2.17;;
7887;SDS011;3989;48.810;9.208;2022-11-20T06:35:01;2.07;;;1.97;;
7887;SDS011;3989;48.810;9.208;2022-11-20T06:37:28;2.40;;;2.20;;
7887;SDS011;3989;48.810;9.208;2022-11-20T06:39:56;7.17;;;2.23;;
7887;SDS011;3989;48.810;9.208;2022-11-20T06:42:22;2.17;;;2.07;;
7887;SDS011;3989;48.810;9.208;2022-11-20T06:44:49;5.23;;;2.20;;
7887;SDS011;3989;48.810;9.208;2022-11-20T06:47:16;1.97;;;1.87;;
7887;SDS011;3989;48.810;9.208;2022-11-20T06:49:42;3.80;;;2.73;;
7887;SDS011;3989;48.810;9.208;2022-11-20T06:52:09;2.60;;;2.20;;
7887;SDS011;3989;48.810;9.208;2022-11-20T06:54:36;2.43;;;2.10;;
7887;SDS011;3989;48.810;9.208;2022-11-20T06:57:04;2.63;;;2.20;;
7887;SDS011;3989;48.810;9.208;2022-11-20T06:59:30;3.77;;;2.80;;
7887;SDS011;3989;48.810;9.208;2022-11-20T07:01:57;2.53;;;2.40;;
7887;SDS011;3989;48.810;9.208;2022-11-20T07:04:24;2.47;;;2.37;;
7887;SDS011;3989;48.810;9.208;2022-11-20T07:06:50;2.13;;;2.03;;
7887;SDS011;3989;48.810;9.208;2022-11-20T07:09:17;2.20;;;2.10;;
7887;SDS011;3989;48.810;9.208;2022-11-20T07:11:44;2.00;;;1.90;;
7887;SDS011;3989;48.810;9.208;2022-11-20T07:14:12;3.23;;;2.23;;
7887;SDS011;3989;48.810;9.208;2022-11-20T07:16:38;2.40;;;2.20;;
7887;SDS011;3989;48.810;9.208;2022-11-20T07:19:05;2.23;;;2.03;;
7887;SDS011;3989;48.810;9.208;2022-11-20T07:21:32;1.93;;;1.83;;
7887;SDS011;3989;48.810;9.208;2022-11-20T07:23:58;2.00;;;1.90;;
7887;SDS011;3989;48.810;9.208;2022-11-20T07:26:25;2.20;;;2.10;;
7887;SDS011;3989;48.810;9.208;2022-11-20T07:28:52;2.10;;;2.00;;
7887;SDS011;3989;48.810;9.208;2022-11-20T07:31:20;2.13;;;1.90;;
7887;SDS011;3989;48.810;9.208;2022-11-20T07:33:47;3.80;;;1.70;;
7887;SDS011;3989;48.810;9.208;2022-11-20T07:36:14;2.30;;;1.90;;
7887;SDS011;3989;48.810;9.208;2022-11-20T07:38:41;1.67;;;1.57;;
7887;SDS011;3989;48.810;9.208;2022-11-20T07:41:07;2.00;;;1.90;;
7887;SDS011;3989;48.810;9.208;2022-11-20T07:43:34;3.00;;;1.97;;
7887;SDS011;3989;48.810;9.208;2022-11-20T07:46:00;2.27;;;2.13;;
7887;SDS011;3989;48.810;9.208;2022-11-20T07:48:30;1.73;;;1.63;;
7887;SDS011;3989;48.810;9.208;2022-11-20T07:50:57;2.00;;;1.90;;
7887;SDS011;3989;48.810;9.208;2022-11-20T07:53:24;2.87;;;1.77;;
7887;SDS011;3989;48.810;9.208;2022-11-20T07:55:50;2.53;;;1.90;;
7887;SDS011;3989;48.810;9.208;2022-11-20T07:58:18;2.23;;;2.10;;
7887;SDS011;3989;48.810;9.208;2022-11-20T08:00:45;1.93;;;1.83;;
7887;SDS011;3989;48.810;9.208;2022-11-20T08:03:11;1.77;;;1.67;;
7887;SDS011;3989;48.810;9.208;2022-11-20T08:05:40;3.67;;;3.37;;
7887;SDS011;3989;48.810;9.208;2022-11-20T08:08:06;4.00;;;3.40;;
7887;SDS011;3989;48.810;9.208;2022-11-20T08:10:33;3.77;;;3.00;;
7887;SDS011;3989;48.810;9.208;2022-11-20T08:12:59;5.67;;;3.53;;
7887;SDS011;3989;48.810;9.208;2022-11-20T08:15:47;3.33;;;2.70;;
7887;SDS011;3989;48.810;9.208;2022-11-20T08:18:15;2.90;;;2.70;;
7887;SDS011;3989;48.810;9.208;2022-11-20T08:20:43;1.80;;;1.70;;
7887;SDS011;3989;48.810;9.208;2022-11-20T08:23:11;1.80;;;1.70;;
7887;SDS011;3989;48.810;9.208;2022-11-20T08:25:37;2.13;;;1.50;;
7887;SDS011;3989;48.810;9.208;2022-11-20T08:28:05;1.67;;;1.50;;
7887;SDS011;3989;48.810;9.208;2022-11-20T08:30:32;1.63;;;1.53;;
7887;SDS011;3989;48.810;9.208;2022-11-20T08:33:00;1.40;;;1.30;;
7887;SDS011;3989;48.810;9.208;2022-11-20T08:35:29;1.60;;;1.50;;
7887;SDS011;3989;48.810;9.208;2022-11-20T08:38:00;1.47;;;1.47;;
7887;SDS011;3989;48.810;9.208;2022-11-20T08:40:27;1.57;;;1.47;;
7887;SDS011;3989;48.810;9.208;2022-11-20T08:42:54;1.30;;;1.20;;
7887;SDS011;3989;48.810;9.208;2022-11-20T08:45:20;1.30;;;1.30;;
7887;SDS011;3989;48.810;9.208;2022-11-20T08:47:47;1.10;;;1.10;;
7887;SDS011;3989;48.810;9.208;2022-11-20T08:50:14;1.00;;;1.00;;
7887;SDS011;3989;48.810;9.208;2022-11-20T08:52:42;1.60;;;1.20;;
7887;SDS011;3989;48.810;9.208;2022-11-20T08:55:10;1.00;;;1.00;;
7887;SDS011;3989;48.810;9.208;2022-11-20T08:57:37;1.50;;;1.50;;
7887;SDS011;3989;48.810;9.208;2022-11-20T09:00:04;0.90;;;0.90;;
7887;SDS011;3989;48.810;9.208;2022-11-20T09:02:32;1.77;;;1.20;;
7887;SDS011;3989;48.810;9.208;2022-11-20T09:04:59;0.80;;;0.80;;
7887;SDS011;3989;48.810;9.208;2022-11-20T09:07:27;2.00;;;1.30;;
7887;SDS011;3989;48.810;9.208;2022-11-20T09:09:54;0.70;;;0.70;;
7887;SDS011;3989;48.810;9.208;2022-11-20T09:12:22;0.87;;;0.87;;
7887;SDS011;3989;48.810;9.208;2022-11-20T09:14:48;3.03;;;2.57;;
7887;SDS011;3989;48.810;9.208;2022-11-20T09:17:15;3.63;;;3.33;;
7887;SDS011;3989;48.810;9.208;2022-11-20T09:19:42;1.27;;;1.23;;
7887;SDS011;3989;48.810;9.208;2022-11-20T09:22:08;0.90;;;0.90;;
7887;SDS011;3989;48.810;9.208;2022-11-20T09:24:38;2.47;;;0.70;;
7887;SDS011;3989;48.810;9.208;2022-11-20T09:27:04;0.80;;;0.80;;
7887;SDS011;3989;48.810;9.208;2022-11-20T09:29:32;0.80;;;0.80;;
7887;SDS011;3989;48.810;9.208;2022-11-20T09:31:59;1.03;;;0.90;;
7887;SDS011;3989;48.810;9.208;2022-11-20T09:34:26;0.67;;;0.67;;
7887;SDS011;3989;48.810;9.208;2022-11-20T09:36:52;0.57;;;0.57;;
7887;SDS011;3989;48.810;9.208;2022-11-20T09:39:20;0.87;;;0.87;;
7887;SDS011;3989;48.810;9.208;2022-11-20T09:42:02;0.73;;;0.73;;
7887;SDS011;3989;48.810;9.208;2022-11-20T09:44:48;7.73;;;4.53;;
7887;SDS011;3989;48.810;9.208;2022-11-20T09:47:26;0.80;;;0.80;;
7887;SDS011;3989;48.810;9.208;2022-11-20T09:50:10;1.30;;;0.60;;
7887;SDS011;3989;48.810;9.208;2022-11-20T09:52:50;0.80;;;0.67;;
7887;SDS011;3989;48.810;9.208;2022-11-20T09:55:27;0.80;;;0.80;;
7887;SDS011;3989;48.810;9.208;2022-11-20T09:57:55;1.00;;;0.90;;
7887;SDS011;3989;48.810;9.208;2022-11-20T10:00:26;1.90;;;1.10;;
7887;SDS011;3989;48.810;9.208;2022-11-20T10:02:55;6.67;;;3.43;;
7887;SDS011;3989;48.810;9.208;2022-11-20T10:05:28;21.83;;;6.57;;
7887;SDS011;3989;48.810;9.208;2022-11-20T10:08:00;0.60;;;0.60;;
7887;SDS011;3989;48.810;9.208;2022-11-20T10:10:40;0.60;;;0.60;;
7887;SDS011;3989;48.810;9.208;2022-11-20T10:13:14;0.50;;;0.50;;
7887;SDS011;3989;48.810;9.208;2022-11-20T10:16:09;0.50;;;0.50;;
7887;SDS011;3989;48.810;9.208;2022-11-20T10:18:56;1.40;;;0.60;;
7887;SDS011;3989;48.810;9.208;2022-11-20T10:21:37;0.90;;;0.90;;
7887;SDS011;3989;48.810;9.208;2022-11-20T10:24:24;1.70;;;0.77;;
7887;SDS011;3989;48.810;9.208;2022-11-20T10:27:15;0.47;;;0.47;;
7887;SDS011;3989;48.810;9.208;2022-11-20T10:30:07;0.50;;;0.50;;
7887;SDS011;3989;48.810;9.208;2022-11-20T10:32:38;0.67;;;0.67;;
7887;SDS011;3989;48.810;9.208;2022-11-20T10:35:09;0.80;;;0.80;;
7887;SDS011;3989;48.810;9.208;2022-11-20T10:37:49;4.37;;;0.80;;
7887;SDS011;3989;48.810;9.208;2022-11-20T10:40:23;0.70;;;0.70;;
7887;SDS011;3989;48.810;9.208;2022-11-20T10:42:58;0.50;;;0.50;;
7887;SDS011;3989;48.810;9.208;2022-11-20T10:48:20;0.70;;;0.70;;
7887;SDS011;3989;48.810;9.208;2022-11-20T10:51:01;0.50;;;0.50;;
7887;SDS011;3989;48.810;9.208;2022-11-20T10:56:38;1.50;;;0.73;;
7887;SDS011;3989;48.810;9.208;2022-11-20T10:59:27;0.77;;;0.77;;
7887;SDS011;3989;48.810;9.208;2022-11-20T11:02:14;2.67;;;0.77;;
7887;SDS011;3989;48.810;9.208;2022-11-20T11:04:44;0.80;;;0.80;;
7887;SDS011;3989;48.810;9.208;2022-11-20T11:07:15;0.80;;;0.80;;
7887;SDS011;3989;48.810;9.208;2022-11-20T11:09:48;0.70;;;0.70;;
7887;SDS011;3989;48.810;9.208;2022-11-20T11:12:17;0.90;;;0.90;;
7887;SDS011;3989;48.810;9.208;2022-11-20T11:14:45;0.70;;;0.70;;
7887;SDS011;3989;48.810;9.208;2022-11-20T11:17:22;0.87;;;0.87;;
7887;SDS011;3989;48.810;9.208;2022-11-20T11:20:15;1.10;;;0.93;;
7887;SDS011;3989;48.810;9.208;2022-11-20T11:22:45;2.83;;;0.70;;
7887;SDS011;3989;48.810;9.208;2022-11-20T11:25:21;0.90;;;0.90;;
7887;SDS011;3989;48.810;9.208;2022-11-20T11:27:49;0.80;;;0.80;;
7887;SDS011;3989;48.810;9.208;2022-11-20T11:30:18;1.03;;;0.80;;
7887;SDS011;3989;48.810;9.208;2022-11-20T11:32:48;1.30;;;1.20;;
7887;SDS011;3989;48.810;9.208;2022-11-20T11:35:21;1.27;;;1.20;;
7887;SDS011;3989;48.810;9.208;2022-11-20T11:37:50;2.10;;;1.10;;
7887;SDS011;3989;48.810;9.208;2022-11-20T11:40:19;1.20;;;1.10;;
7887;SDS011;3989;48.810;9.208;2022-11-20T11:42:49;1.20;;;1.20;;
7887;SDS011;3989;48.810;9.208;2022-11-20T11:45:21;1.10;;;1.10;;
7887;SDS011;3989;48.810;9.208;2022-11-20T11:47:47;1.27;;;1.23;;
7887;SDS011;3989;48.810;9.208;2022-11-20T11:50:18;1.20;;;1.20;;
7887;SDS011;3989;48.810;9.208;2022-11-20T11:52:50;1.50;;;1.40;;
7887;SDS011;3989;48.810;9.208;2022-11-20T11:55:28;1.60;;;1.30;;
7887;SDS011;3989;48.810;9.208;2022-11-20T11:58:02;1.10;;;1.10;;
7887;SDS011;3989;48.810;9.208;2022-11-20T12:00:38;1.30;;;1.30;;
7887;SDS011;3989;48.810;9.208;2022-11-20T12:03:12;2.50;;;1.30;;
7887;SDS011;3989;48.810;9.208;2022-11-20T12:05:48;1.87;;;1.50;;
7887;SDS011;3989;48.810;9.208;2022-11-20T12:08:18;2.67;;;1.10;;
7887;SDS011;3989;48.810;9.208;2022-11-20T12:10:50;1.90;;;1.00;;
7887;SDS011;3989;48.810;9.208;2022-11-20T12:13:25;2.33;;;1.13;;
7887;SDS011;3989;48.810;9.208;2022-11-20T12:16:01;1.37;;;1.27;;
7887;SDS011;3989;48.810;9.208;2022-11-20T12:18:29;2.60;;;1.30;;
7887;SDS011;3989;48.810;9.208;2022-11-20T12:21:02;1.97;;;1.50;;
7887;SDS011;3989;48.810;9.208;2022-11-20T12:23:41;1.67;;;1.20;;
7887;SDS011;3989;48.810;9.208;2022-11-20T12:26:31;1.30;;;1.13;;
7887;SDS011;3989;48.810;9.208;2022-11-20T12:29:10;0.90;;;0.90;;
7887;SDS011;3989;48.810;9.208;2022-11-20T12:31:49;1.23;;;1.03;;
7887;SDS011;3989;48.810;9.208;2022-11-20T12:34:41;1.10;;;1.10;;
7887;SDS011;3989;48.810;9.208;2022-11-20T12:37:18;2.30;;;0.90;;
7887;SDS011;3989;48.810;9.208;2022-11-20T12:39:57;0.80;;;0.80;;
7887;SDS011;3989;48.810;9.208;2022-11-20T12:42:39;0.63;;;0.63;;
7887;SDS011;3989;48.810;9.208;2022-11-20T12:45:46;1.17;;;1.10;;
7887;SDS011;3989;48.810;9.208;2022-11-20T12:48:40;2.50;;;1.00;;
7887;SDS011;3989;48.810;9.208;2022-11-20T12:54:14;1.27;;;1.00;;
7887;SDS011;3989;48.810;9.208;2022-11-20T12:57:15;0.90;;;0.90;;
7887;SDS011;3989;48.810;9.208;2022-11-20T12:59:55;0.67;;;0.67;;
7887;SDS011;3989;48.810;9.208;2022-11-20T13:02:33;0.80;;;0.80;;
7887;SDS011;3989;48.810;9.208;2022-11-20T13:05:07;1.03;;;1.03;;
7887;SDS011;3989;48.810;9.208;2022-11-20T13:07:44;1.40;;;0.90;;
7887;SDS011;3989;48.810;9.208;2022-11-20T13:10:16;2.10;;;1.03;;
7887;SDS011;3989;48.810;9.208;2022-11-20T13:12:49;0.60;;;0.60;;
7887;SDS011;3989;48.810;9.208;2022-11-20T13:15:26;0.77;;;0.73;;
7887;SDS011;3989;48.810;9.208;2022-11-20T13:18:11;0.80;;;0.80;;
7887;SDS011;3989;48.810;9.208;2022-11-20T13:20:41;1.20;;;1.10;;
7887;SDS011;3989;48.810;9.208;2022-11-20T13:23:09;0.93;;;0.90;;
7887;SDS011;3989;48.810;9.208;2022-11-20T13:25:38;1.50;;;0.70;;
7887;SDS011;3989;48.810;9.208;2022-11-20T13:30:53;0.90;;;0.90;;
7887;SDS011;3989;48.810;9.208;2022-11-20T13:33:22;1.00;;;1.00;;
7887;SDS011;3989;48.810;9.208;2022-11-20T13:35:55;0.60;;;0.60;;
7887;SDS011;3989;48.810;9.208;2022-11-20T13:38:23;2.30;;;1.17;;
7887;SDS011;3989;48.810;9.208;2022-11-20T13:40:52;1.43;;;0.80;;
7887;SDS011;3989;48.810;9.208;2022-11-20T13:43:22;0.77;;;0.77;;
7887;SDS011;3989;48.810;9.208;2022-11-20T13:45:54;0.70;;;0.70;;
7887;SDS011;3989;48.810;9.208;2022-11-20T13:48:23;0.60;;;0.60;;
7887;SDS011;3989;48.810;9.208;2022-11-20T13:51:02;1.00;;;1.00;;
7887;SDS011;3989;48.810;9.208;2022-11-20T13:53:46;0.80;;;0.80;;
7887;SDS011;3989;48.810;9.208;2022-11-20T13:56:34;0.70;;;0.57;;
7887;SDS011;3989;48.810;9.208;2022-11-20T13:59:11;0.87;;;0.87;;
7887;SDS011;3989;48.810;9.208;2022-11-20T14:01:53;1.33;;;0.70;;
7887;SDS011;3989;48.810;9.208;2022-11-20T14:04:24;0.57;;;0.57;;
7887;SDS011;3989;48.810;9.208;2022-11-20T14:06:55;0.63;;;0.63;;
7887;SDS011;3989;48.810;9.208;2022-11-20T14:09:27;0.70;;;0.70;;
7887;SDS011;3989;48.810;9.208;2022-11-20T14:12:17;0.70;;;0.70;;
7887;SDS011;3989;48.810;9.208;2022-11-20T14:15:05;3.13;;;0.90;;
7887;SDS011;3989;48.810;9.208;2022-11-20T14:17:33;1.00;;;1.00;;
7887;SDS011;3989;48.810;9.208;2022-11-20T14:20:02;1.77;;;1.67;;
7887;SDS011;3989;48.810;9.208;2022-11-20T14:22:31;1.07;;;0.60;;
7887;SDS011;3989;48.810;9.208;2022-11-20T14:25:01;1.70;;;0.90;;
7887;SDS011;3989;48.810;9.208;2022-11-20T14:27:50;0.80;;;0.80;;
7887;SDS011;3989;48.810;9.208;2022-11-20T14:30:22;0.67;;;0.67;;
7887;SDS011;3989;48.810;9.208;2022-11-20T14:32:53;0.97;;;0.93;;
7887;SDS011;3989;48.810;9.208;2022-11-20T14:35:24;0.70;;;0.70;;
7887;SDS011;3989;48.810;9.208;2022-11-20T14:37:52;1.47;;;1.00;;
7887;SDS011;3989;48.810;9.208;2022-11-20T14:40:27;0.77;;;0.77;;
7887;SDS011;3989;48.810;9.208;2022-11-20T14:42:57;1.20;;;1.10;;
7887;SDS011;3989;48.810;9.208;2022-11-20T14:45:25;1.00;;;0.97;;
7887;SDS011;3989;48.810;9.208;2022-11-20T14:47:52;1.27;;;1.20;;
7887;SDS011;3989;48.810;9.208;2022-11-20T14:50:25;1.07;;;1.00;;
7887;SDS011;3989;48.810;9.208;2022-11-20T14:52:54;1.10;;;1.10;;
7887;SDS011;3989;48.810;9.208;2022-11-20T14:55:25;0.80;;;0.80;;
7887;SDS011;3989;48.810;9.208;2022-11-20T14:57:58;1.17;;;1.07;;
7887;SDS011;3989;48.810;9.208;2022-11-20T15:00:26;3.90;;;1.77;;
7887;SDS011;3989;48.810;9.208;2022-11-20T15:02:53;1.77;;;1.27;;
7887;SDS011;3989;48.810;9.208;2022-11-20T15:05:20;1.37;;;1.00;;
7887;SDS011;3989;48.810;9.208;2022-11-20T15:07:49;2.00;;;0.97;;
7887;SDS011;3989;48.810;9.208;2022-11-20T15:10:21;1.10;;;1.03;;
7887;SDS011;3989;48.810;9.208;2022-11-20T15:12:50;1.50;;;0.93;;
7887;SDS011;3989;48.810;9.208;2022-11-20T15:15:20;1.00;;;0.90;;
7887;SDS011;3989;48.810;9.208;2022-11-20T15:17:51;1.37;;;1.20;;
7887;SDS011;3989;48.810;9.208;2022-11-20T15:20:19;1.10;;;0.80;;
7887;SDS011;3989;48.810;9.208;2022-11-20T15:22:54;0.73;;;0.73;;
7887;SDS011;3989;48.810;9.208;2022-11-20T15:25:20;1.33;;;1.23;;
7887;SDS011;3989;48.810;9.208;2022-11-20T15:27:50;0.90;;;0.90;;
7887;SDS011;3989;48.810;9.208;2022-11-20T15:30:22;1.97;;;1.07;;
7887;SDS011;3989;48.810;9.208;2022-11-20T15:32:49;2.63;;;1.40;;
7887;SDS011;3989;48.810;9.208;2022-11-20T15:35:15;1.10;;;1.10;;
7887;SDS011;3989;48.810;9.208;2022-11-20T15:37:42;2.87;;;0.97;;
7887;SDS011;3989;48.810;9.208;2022-11-20T15:40:09;1.17;;;1.07;;
7887;SDS011;3989;48.810;9.208;2022-11-20T15:42:36;3.90;;;1.43;;
7887;SDS011;3989;48.810;9.208;2022-11-20T15:45:03;1.80;;;1.00;;